createdAt,value
2019-03-24T00:00:52.367Z,72.80
2019-03-24T00:03:22.300Z,72.80
2019-03-24T00:05:52.160Z,72.70
2019-03-24T00:08:21.980Z,72.70
2019-03-24T00:10:51.836Z,72.70
2019-03-24T00:13:21.791Z,72.70
2019-03-24T00:15:51.656Z,72.70
2019-03-24T00:18:21.968Z,72.70
2019-03-24T00:20:52.146Z,72.70
2019-03-24T00:23:22.016Z,72.60
2019-03-24T00:25:52.183Z,72.70
2019-03-24T00:28:22.032Z,72.80
2019-03-24T00:30:51.815Z,72.90
2019-03-24T00:33:21.623Z,73.00
2019-03-24T00:35:51.506Z,73.00
2019-03-24T00:38:21.399Z,73.00
2019-03-24T00:40:51.201Z,73.10
2019-03-24T00:43:21.011Z,73.10
2019-03-24T00:45:50.963Z,73.10
2019-03-24T00:48:20.859Z,73.10
2019-03-24T00:50:50.695Z,73.10
2019-03-24T00:53:20.503Z,73.10
2019-03-24T00:55:50.323Z,73.00
2019-03-24T00:58:20.248Z,73.00
2019-03-24T01:00:51.535Z,72.90
2019-03-24T01:03:21.396Z,72.90
2019-03-24T01:05:51.190Z,72.90
2019-03-24T01:08:21.350Z,72.80
2019-03-24T01:10:51.111Z,72.70
2019-03-24T01:13:20.895Z,72.80
2019-03-24T01:15:51.158Z,72.70
2019-03-24T01:18:20.927Z,73.40
2019-03-24T01:20:50.794Z,72.60
2019-03-24T01:23:20.586Z,72.60
2019-03-24T01:25:50.490Z,72.50
2019-03-24T01:28:20.294Z,72.50
2019-03-24T01:30:50.094Z,72.40
2019-03-24T01:33:19.910Z,72.40
2019-03-24T01:35:49.719Z,72.40
2019-03-24T01:38:19.610Z,72.20
2019-03-24T01:40:49.390Z,72.10
2019-03-24T01:43:19.310Z,72.00
2019-03-24T01:45:58.142Z,71.90
2019-03-24T01:48:20.558Z,71.80
2019-03-24T01:50:50.334Z,71.80
2019-03-24T01:53:20.214Z,71.60
2019-03-24T01:55:51.818Z,71.60
2019-03-24T01:58:21.714Z,71.50
2019-03-24T02:00:51.774Z,71.40
2019-03-24T02:03:21.586Z,71.30
2019-03-24T02:05:51.372Z,71.20
2019-03-24T02:08:21.237Z,71.00
2019-03-24T02:10:51.037Z,70.90
2019-03-24T02:13:20.953Z,70.80
2019-03-24T02:15:50.872Z,70.70
2019-03-24T02:18:20.665Z,70.60
2019-03-24T02:20:50.483Z,70.60
2019-03-24T02:23:20.333Z,70.70
2019-03-24T02:25:50.197Z,70.80
2019-03-24T02:28:19.989Z,70.80
2019-03-24T02:30:49.790Z,71.10
2019-03-24T02:33:19.695Z,70.90
2019-03-24T02:35:49.510Z,71.00
2019-03-24T02:38:19.350Z,70.90
2019-03-24T02:40:49.118Z,70.80
2019-03-24T02:43:19.942Z,70.70
2019-03-24T02:45:49.754Z,70.70
2019-03-24T02:48:19.551Z,70.70
2019-03-24T02:50:49.817Z,70.60
2019-03-24T02:53:19.770Z,70.50
2019-03-24T02:55:49.586Z,70.40
2019-03-24T02:58:19.421Z,70.30
2019-03-24T03:00:49.230Z,70.10
2019-03-24T03:03:19.078Z,70.20
2019-03-24T03:05:48.873Z,70.10
2019-03-24T03:08:18.786Z,70.30
2019-03-24T03:10:48.669Z,70.00
2019-03-24T03:13:18.481Z,70.00
2019-03-24T03:15:48.274Z,70.00
2019-03-24T03:18:18.177Z,69.80
2019-03-24T03:20:48.013Z,69.80
2019-03-24T03:23:17.826Z,70.60
2019-03-24T03:25:47.693Z,69.70
2019-03-24T03:28:17.513Z,69.70
2019-03-24T03:30:47.294Z,69.50
2019-03-24T03:33:17.104Z,69.40
2019-03-24T03:35:46.934Z,69.30
2019-03-24T03:38:16.773Z,69.20
2019-03-24T03:40:47.431Z,69.30
2019-03-24T03:43:17.300Z,69.30
2019-03-24T03:45:47.102Z,69.30
2019-03-24T03:48:16.990Z,69.40
2019-03-24T03:50:46.794Z,69.40
2019-03-24T03:53:16.568Z,69.40
2019-03-24T03:55:46.373Z,69.30
2019-03-24T03:58:16.193Z,69.20
2019-03-24T04:00:46.067Z,69.20
2019-03-24T04:03:15.856Z,69.20
2019-03-24T04:05:45.695Z,69.20
2019-03-24T04:08:15.507Z,69.20
2019-03-24T04:10:45.321Z,69.20
2019-03-24T04:13:15.136Z,69.30
2019-03-24T04:15:44.921Z,69.30
2019-03-24T04:18:14.747Z,69.20
2019-03-24T04:20:44.541Z,69.20
2019-03-24T04:23:14.521Z,69.10
2019-03-24T04:25:44.331Z,69.00
2019-03-24T04:28:14.141Z,68.90
2019-03-24T04:30:43.917Z,68.80
2019-03-24T04:33:13.784Z,68.80
2019-03-24T04:35:43.686Z,68.80
2019-03-24T04:38:13.483Z,68.80
2019-03-24T04:40:43.603Z,68.80
2019-03-24T04:43:13.563Z,68.70
2019-03-24T04:45:44.267Z,68.60
2019-03-24T04:48:14.011Z,68.70
2019-03-24T04:50:43.851Z,68.70
2019-03-24T04:53:13.637Z,68.70
2019-03-24T04:55:43.543Z,68.90
2019-03-24T04:58:13.328Z,68.90
2019-03-24T05:00:43.187Z,68.90
2019-03-24T05:03:12.985Z,69.00
2019-03-24T05:05:43.552Z,69.00
2019-03-24T05:08:14.389Z,68.90
2019-03-24T05:10:44.199Z,69.10
2019-03-24T05:13:13.987Z,69.10
2019-03-24T05:15:43.839Z,69.20
2019-03-24T05:18:13.650Z,69.20
2019-03-24T05:20:43.342Z,69.40
2019-03-24T05:23:13.179Z,69.50
2019-03-24T05:25:43.039Z,69.60
2019-03-24T05:28:12.861Z,69.70
2019-03-24T05:30:42.695Z,69.80
2019-03-24T05:33:13.233Z,69.90
2019-03-24T05:35:43.034Z,70.00
2019-03-24T05:38:12.902Z,70.10
2019-03-24T05:40:42.809Z,70.10
2019-03-24T05:43:12.666Z,70.20
2019-03-24T05:45:42.466Z,70.20
2019-03-24T05:48:12.274Z,70.30
2019-03-24T05:50:42.107Z,70.40
2019-03-24T05:53:11.914Z,70.30
2019-03-24T05:55:41.715Z,70.30
2019-03-24T05:58:11.588Z,70.20
2019-03-24T06:00:41.362Z,70.30
2019-03-24T06:03:11.186Z,70.30
2019-03-24T06:05:40.970Z,70.40
2019-03-24T06:08:10.870Z,70.40
2019-03-24T06:10:40.683Z,70.50
2019-03-24T06:13:10.474Z,71.30
2019-03-24T06:15:40.345Z,70.40
2019-03-24T06:18:10.110Z,70.40
2019-03-24T06:20:39.998Z,70.40
2019-03-24T06:23:09.719Z,70.40
2019-03-24T06:25:39.633Z,70.10
2019-03-24T06:28:09.479Z,70.20
2019-03-24T06:30:39.461Z,70.00
2019-03-24T06:33:09.302Z,69.80
2019-03-24T06:35:39.198Z,69.70
2019-03-24T06:38:09.046Z,69.60
2019-03-24T06:40:38.838Z,69.40
2019-03-24T06:43:08.665Z,69.20
2019-03-24T06:45:38.577Z,69.10
2019-03-24T06:48:08.433Z,68.90
2019-03-24T06:50:38.246Z,68.60
2019-03-24T06:53:08.140Z,68.30
2019-03-24T06:55:37.937Z,68.20
2019-03-24T06:58:07.757Z,68.10
2019-03-24T07:00:37.525Z,67.80
2019-03-24T07:03:07.357Z,67.70
2019-03-24T07:05:37.205Z,68.30
2019-03-24T07:08:07.013Z,67.50
2019-03-24T07:10:36.805Z,67.30
2019-03-24T07:13:06.669Z,67.10
2019-03-24T07:15:36.512Z,66.70
2019-03-24T07:18:08.656Z,66.40
2019-03-24T07:20:37.761Z,66.10
2019-03-24T07:23:07.581Z,66.00
2019-03-24T07:25:37.501Z,66.00
2019-03-24T07:28:07.361Z,65.70
2019-03-24T07:30:37.181Z,65.40
2019-03-24T07:33:07.001Z,65.00
2019-03-24T07:35:36.809Z,64.60
2019-03-24T07:38:06.608Z,64.40
2019-03-24T07:40:36.463Z,63.90
2019-03-24T07:43:06.264Z,63.70
2019-03-24T07:45:36.081Z,63.80
2019-03-24T07:48:05.982Z,63.80
2019-03-24T07:50:35.748Z,63.60
2019-03-24T07:53:05.525Z,63.50
2019-03-24T07:55:35.345Z,63.60
2019-03-24T07:58:05.130Z,63.70
2019-03-24T08:00:39.924Z,63.80
2019-03-24T08:03:10.109Z,63.70
2019-03-24T08:05:39.929Z,63.50
2019-03-24T08:08:09.716Z,63.30
2019-03-24T08:10:39.516Z,63.00
2019-03-24T08:13:09.316Z,62.60
2019-03-24T08:15:39.185Z,62.50
2019-03-24T08:18:09.019Z,62.40
2019-03-24T08:20:38.868Z,61.90
2019-03-24T08:23:08.766Z,61.40
2019-03-24T08:25:38.568Z,61.10
2019-03-24T08:28:08.347Z,60.80
2019-03-24T08:30:39.409Z,61.10
2019-03-24T08:33:09.232Z,60.00
2019-03-24T08:35:39.079Z,60.00
2019-03-24T08:38:08.873Z,60.10
2019-03-24T08:40:38.647Z,60.20
2019-03-24T08:43:08.530Z,60.00
2019-03-24T08:45:38.303Z,59.80
2019-03-24T08:48:08.534Z,59.60
2019-03-24T08:50:38.299Z,59.40
2019-03-24T08:53:08.178Z,59.20
2019-03-24T08:55:38.027Z,59.20
2019-03-24T08:58:07.935Z,59.00
2019-03-24T09:00:37.699Z,59.10
2019-03-24T09:03:07.483Z,58.60
2019-03-24T09:05:37.387Z,58.60
2019-03-24T09:08:07.174Z,58.40
2019-03-24T09:10:37.053Z,57.90
2019-03-24T09:13:06.879Z,57.60
2019-03-24T09:15:36.799Z,57.30
2019-03-24T09:18:06.582Z,57.20
2019-03-24T09:20:41.682Z,57.10
2019-03-24T09:23:10.557Z,56.60
2019-03-24T09:25:40.135Z,56.10
2019-03-24T09:28:10.039Z,55.70
2019-03-24T09:30:39.966Z,55.90
2019-03-24T09:33:09.846Z,56.50
2019-03-24T09:35:39.658Z,55.60
2019-03-24T09:38:09.485Z,55.40
2019-03-24T09:40:39.446Z,55.30
2019-03-24T09:43:09.257Z,55.10
2019-03-24T09:45:39.122Z,55.10
2019-03-24T09:48:08.952Z,55.20
2019-03-24T09:50:38.766Z,55.20
2019-03-24T09:53:08.515Z,55.00
2019-03-24T09:55:38.285Z,54.60
2019-03-24T09:58:08.097Z,54.50
2019-03-24T10:00:37.790Z,54.50
2019-03-24T10:03:07.606Z,54.70
2019-03-24T10:05:37.357Z,54.30
2019-03-24T10:08:07.094Z,54.60
2019-03-24T10:10:36.881Z,53.90
2019-03-24T10:13:06.705Z,53.70
2019-03-24T10:15:36.477Z,53.80
2019-03-24T10:18:06.302Z,53.70
2019-03-24T10:20:36.126Z,53.70
2019-03-24T10:23:05.905Z,53.80
2019-03-24T10:25:35.702Z,53.70
2019-03-24T10:28:05.497Z,53.50
2019-03-24T10:30:35.241Z,53.20
2019-03-24T10:33:05.019Z,53.00
2019-03-24T10:35:34.833Z,53.60
2019-03-24T10:38:04.619Z,52.90
2019-03-24T10:40:34.441Z,52.60
2019-03-24T10:43:04.193Z,52.30
2019-03-24T10:45:34.037Z,52.10
2019-03-24T10:48:04.014Z,51.80
2019-03-24T10:50:33.828Z,51.50
2019-03-24T10:53:03.717Z,51.10
2019-03-24T10:55:33.606Z,50.70
2019-03-24T10:58:03.381Z,50.50
2019-03-24T11:00:40.937Z,50.00
2019-03-24T11:03:11.021Z,49.60
2019-03-24T11:05:40.928Z,49.50
2019-03-24T11:08:10.776Z,49.30
2019-03-24T11:10:40.610Z,49.00
2019-03-24T11:13:10.434Z,48.80
2019-03-24T11:15:40.384Z,48.50
2019-03-24T11:18:10.240Z,48.30
2019-03-24T11:20:40.110Z,48.30
2019-03-24T11:23:10.047Z,48.30
2019-03-24T11:25:39.824Z,47.90
2019-03-24T11:28:09.652Z,47.50
2019-03-24T11:30:39.500Z,47.40
2019-03-24T11:33:09.304Z,47.20
2019-03-24T11:35:39.212Z,47.00
2019-03-24T11:38:09.088Z,46.50
2019-03-24T11:40:39.007Z,46.50
2019-03-24T11:43:08.922Z,46.50
2019-03-24T11:45:38.720Z,46.50
2019-03-24T11:48:08.536Z,46.30
2019-03-24T11:50:38.321Z,45.90
2019-03-24T11:53:08.251Z,45.40
2019-03-24T11:55:38.084Z,44.60
2019-03-24T11:58:07.980Z,44.10
2019-03-24T12:00:39.732Z,44.20
2019-03-24T12:03:09.558Z,44.00
2019-03-24T12:05:39.487Z,43.70
2019-03-24T12:08:09.291Z,43.60
2019-03-24T12:10:39.127Z,43.40
2019-03-24T12:13:08.891Z,43.60
2019-03-24T12:15:38.695Z,43.70
2019-03-24T12:18:08.687Z,44.00
2019-03-24T12:20:38.530Z,44.30
2019-03-24T12:23:08.355Z,44.00
2019-03-24T12:25:38.167Z,44.00
2019-03-24T12:28:07.987Z,44.00
2019-03-24T12:30:37.767Z,44.00
2019-03-24T12:33:07.599Z,44.10
2019-03-24T12:35:37.432Z,44.00
2019-03-24T12:38:07.223Z,44.10
2019-03-24T12:40:37.063Z,44.10
2019-03-24T12:43:06.887Z,43.90
2019-03-24T12:45:36.681Z,43.70
2019-03-24T12:48:06.659Z,43.10
2019-03-24T12:50:36.577Z,42.70
2019-03-24T12:53:06.538Z,42.40
2019-03-24T12:55:36.426Z,42.30
2019-03-24T12:58:06.278Z,42.10
2019-03-24T13:00:40.651Z,41.90
2019-03-24T13:03:10.466Z,42.10
2019-03-24T13:05:40.462Z,41.60
2019-03-24T13:08:14.579Z,41.30
2019-03-24T13:10:44.861Z,41.60
2019-03-24T13:13:14.823Z,42.00
2019-03-24T13:15:44.622Z,42.30
2019-03-24T13:18:14.454Z,42.50
2019-03-24T13:20:44.392Z,42.40
2019-03-24T13:23:14.247Z,42.30
2019-03-24T13:25:44.085Z,42.30
2019-03-24T13:28:13.854Z,42.30
2019-03-24T13:30:43.690Z,42.30
2019-03-24T13:33:13.475Z,41.90
2019-03-24T13:35:43.450Z,41.80
2019-03-24T13:38:13.249Z,41.70
2019-03-24T13:40:43.082Z,42.30
2019-03-24T13:43:12.912Z,41.90
2019-03-24T13:45:42.793Z,42.20
2019-03-24T13:48:12.629Z,42.70
2019-03-24T13:50:42.469Z,42.90
2019-03-24T13:53:12.305Z,43.20
2019-03-24T13:55:42.105Z,43.60
2019-03-24T13:58:12.321Z,43.80
2019-03-24T14:00:42.233Z,44.30
2019-03-24T14:03:12.066Z,44.40
2019-03-24T14:05:41.893Z,44.70
2019-03-24T14:08:11.731Z,44.70
2019-03-24T14:10:41.565Z,44.30
2019-03-24T14:13:11.349Z,43.80
2019-03-24T14:15:41.257Z,43.70
2019-03-24T14:18:11.125Z,43.50
2019-03-24T14:20:43.649Z,43.50
2019-03-24T14:23:12.474Z,43.50
2019-03-24T14:25:42.300Z,43.60
2019-03-24T14:28:12.113Z,43.50
2019-03-24T14:30:49.241Z,43.60
2019-03-24T14:33:19.068Z,43.50
2019-03-24T14:35:48.888Z,43.40
2019-03-24T14:38:18.702Z,43.50
2019-03-24T14:40:48.492Z,43.30
2019-03-24T14:43:18.316Z,43.00
2019-03-24T14:45:48.248Z,42.90
2019-03-24T14:48:18.055Z,43.10
2019-03-24T14:50:54.532Z,43.30
2019-03-24T14:53:19.375Z,43.30
2019-03-24T14:55:49.256Z,43.40
2019-03-24T14:58:19.224Z,43.40
2019-03-24T15:00:50.236Z,43.30
2019-03-24T15:03:20.048Z,43.10
2019-03-24T15:05:49.908Z,43.10
2019-03-24T15:08:19.719Z,43.20
2019-03-24T15:10:49.564Z,43.20
2019-03-24T15:13:19.376Z,43.30
2019-03-24T15:15:49.243Z,43.40
2019-03-24T15:18:19.319Z,43.40
2019-03-24T15:20:49.091Z,43.40
2019-03-24T15:23:18.936Z,43.60
2019-03-24T15:25:48.855Z,43.70
2019-03-24T15:28:18.776Z,43.80
2019-03-24T15:30:48.563Z,44.10
2019-03-24T15:33:18.472Z,44.10
2019-03-24T15:35:48.258Z,44.10
2019-03-24T15:38:18.851Z,44.20
2019-03-24T15:40:49.549Z,44.30
2019-03-24T15:43:19.461Z,44.30
2019-03-24T15:45:49.284Z,44.50
2019-03-24T15:48:19.196Z,44.70
2019-03-24T15:50:48.976Z,44.70
2019-03-24T15:53:18.847Z,44.90
2019-03-24T15:55:48.651Z,44.90
2019-03-24T15:58:18.434Z,45.10
2019-03-24T16:00:49.520Z,45.30
2019-03-24T16:03:19.680Z,45.50
2019-03-24T16:05:49.611Z,45.60
2019-03-24T16:08:19.463Z,45.70
2019-03-24T16:10:49.299Z,45.90
2019-03-24T16:13:19.103Z,46.00
2019-03-24T16:15:48.959Z,46.00
2019-03-24T16:18:18.805Z,46.20
2019-03-24T16:20:48.726Z,46.20
2019-03-24T16:23:18.687Z,46.10
2019-03-24T16:25:48.515Z,45.90
2019-03-24T16:28:18.344Z,45.90
2019-03-24T16:30:48.130Z,45.70
2019-03-24T16:33:17.958Z,45.70
2019-03-24T16:35:47.746Z,45.60
2019-03-24T16:38:17.590Z,45.50
2019-03-24T16:40:47.418Z,45.70
2019-03-24T16:43:17.330Z,45.70
2019-03-24T16:45:47.452Z,45.70
2019-03-24T16:48:17.363Z,45.90
2019-03-24T16:50:47.168Z,46.00
2019-03-24T16:53:17.018Z,46.20
2019-03-24T16:55:46.965Z,46.40
2019-03-24T16:58:16.752Z,46.50
2019-03-24T17:00:46.594Z,46.70
2019-03-24T17:03:16.324Z,46.90
2019-03-24T17:05:46.198Z,47.10
2019-03-24T17:08:16.052Z,47.10
2019-03-24T17:10:45.982Z,47.30
2019-03-24T17:13:15.778Z,47.50
2019-03-24T17:15:45.709Z,47.60
2019-03-24T17:18:15.677Z,47.90
2019-03-24T17:20:45.531Z,48.10
2019-03-24T17:23:15.332Z,48.40
2019-03-24T17:25:45.213Z,48.70
2019-03-24T17:28:15.064Z,48.90
2019-03-24T17:30:44.900Z,49.10
2019-03-24T17:33:14.741Z,49.30
2019-03-24T17:35:44.723Z,49.50
2019-03-24T17:38:18.165Z,49.60
2019-03-24T17:40:48.051Z,49.80
2019-03-24T17:43:17.900Z,50.10
2019-03-24T17:45:47.811Z,50.30
2019-03-24T17:48:17.652Z,50.50
2019-03-24T17:50:47.452Z,50.80
2019-03-24T17:53:17.311Z,51.00
2019-03-24T17:55:47.172Z,51.30
2019-03-24T17:58:16.976Z,51.50
2019-03-24T18:00:51.080Z,51.70
2019-03-24T18:03:21.035Z,52.00
2019-03-24T18:05:50.864Z,52.20
2019-03-24T18:08:20.712Z,52.60
2019-03-24T18:10:50.613Z,52.90
2019-03-24T18:13:20.416Z,53.10
2019-03-24T18:15:50.212Z,53.30
2019-03-24T18:18:20.048Z,53.50
2019-03-24T18:20:49.887Z,53.50
2019-03-24T18:23:19.728Z,53.70
2019-03-24T18:25:49.560Z,53.90
2019-03-24T18:28:19.387Z,54.10
2019-03-24T18:30:49.215Z,54.30
2019-03-24T18:33:19.006Z,54.50
2019-03-24T18:35:48.851Z,54.70
2019-03-24T18:38:18.734Z,54.80
2019-03-24T18:40:48.566Z,54.90
2019-03-24T18:43:18.401Z,54.80
2019-03-24T18:45:48.210Z,54.70
2019-03-24T18:48:18.158Z,54.60
2019-03-24T18:50:48.123Z,54.70
2019-03-24T18:53:17.934Z,54.90
2019-03-24T18:55:47.763Z,55.00
2019-03-24T18:58:17.625Z,55.20
2019-03-24T19:00:47.431Z,55.40
2019-03-24T19:03:17.244Z,55.80
2019-03-24T19:05:47.065Z,55.90
2019-03-24T19:08:16.946Z,56.00
2019-03-24T19:10:46.733Z,56.20
2019-03-24T19:13:16.697Z,56.30
2019-03-24T19:15:46.466Z,56.60
2019-03-24T19:18:16.266Z,57.00
2019-03-24T19:20:46.041Z,57.30
2019-03-24T19:23:15.873Z,57.50
2019-03-24T19:25:45.654Z,57.60
2019-03-24T19:28:15.412Z,57.80
2019-03-24T19:30:45.285Z,57.90
2019-03-24T19:33:15.013Z,58.10
2019-03-24T19:35:44.849Z,58.00
2019-03-24T19:38:15.053Z,58.10
2019-03-24T19:40:45.157Z,58.20
2019-03-24T19:43:14.981Z,58.20
2019-03-24T19:45:44.777Z,58.20
2019-03-24T19:48:14.585Z,58.30
2019-03-24T19:50:44.401Z,58.30
2019-03-24T19:53:14.216Z,58.30
2019-03-24T19:55:44.229Z,58.30
2019-03-24T19:58:14.345Z,58.30
2019-03-24T20:00:44.124Z,58.50
2019-03-24T20:03:13.935Z,58.60
2019-03-24T20:05:43.808Z,58.70
2019-03-24T20:08:13.670Z,58.90
2019-03-24T20:10:43.475Z,59.00
2019-03-24T20:13:15.194Z,59.00
2019-03-24T20:15:45.370Z,59.00
2019-03-24T20:18:15.606Z,59.00
2019-03-24T20:20:45.958Z,59.20
2019-03-24T20:23:16.317Z,59.30
2019-03-24T20:25:46.483Z,59.40
2019-03-24T20:28:16.652Z,59.50
2019-03-24T20:30:46.829Z,59.70
2019-03-24T20:33:17.013Z,59.70
2019-03-24T20:35:46.898Z,59.90
2019-03-24T20:38:16.685Z,60.00
2019-03-24T20:40:46.899Z,60.20
2019-03-24T20:43:16.727Z,60.10
2019-03-24T20:45:46.562Z,60.20
2019-03-24T20:48:16.410Z,60.40
2019-03-24T20:50:46.266Z,60.50
2019-03-24T20:53:18.480Z,60.90
2019-03-24T20:55:47.640Z,61.10
2019-03-24T20:58:17.571Z,61.40
2019-03-24T21:00:47.345Z,61.60
2019-03-24T21:03:17.158Z,61.80
2019-03-24T21:05:46.884Z,62.00
2019-03-24T21:08:16.703Z,62.10
2019-03-24T21:10:46.478Z,62.30
2019-03-24T21:13:16.302Z,62.70
2019-03-24T21:15:46.132Z,62.70
2019-03-24T21:18:16.071Z,62.80
2019-03-24T21:20:45.928Z,62.80
2019-03-24T21:23:15.787Z,62.70
2019-03-24T21:25:45.586Z,62.80
2019-03-24T21:28:15.451Z,62.80
2019-03-24T21:30:45.191Z,62.90
2019-03-24T21:33:14.998Z,62.90
2019-03-24T21:35:44.823Z,62.90
2019-03-24T21:38:14.694Z,62.90
2019-03-24T21:43:23.403Z,62.80
2019-03-24T21:45:53.307Z,62.90
2019-03-24T21:48:23.159Z,63.00
2019-03-24T21:50:52.939Z,63.00
2019-03-24T21:53:22.779Z,63.10
2019-03-24T21:55:52.607Z,63.10
2019-03-24T21:58:22.399Z,63.20
2019-03-24T22:00:52.202Z,63.30
2019-03-24T22:03:22.077Z,63.30
2019-03-24T22:05:51.952Z,63.50
2019-03-24T22:08:21.755Z,64.00
2019-03-24T22:10:51.603Z,64.10
2019-03-24T22:13:21.431Z,64.50
2019-03-24T22:15:51.251Z,64.60
2019-03-24T22:18:21.202Z,64.50
2019-03-24T22:20:51.030Z,64.40
2019-03-24T22:23:20.914Z,64.30
2019-03-24T22:25:50.723Z,64.20
2019-03-24T22:28:20.600Z,64.10
2019-03-24T22:30:50.466Z,64.00
2019-03-24T22:33:20.354Z,63.90
2019-03-24T22:35:50.177Z,63.90
2019-03-24T22:38:20.086Z,64.00
2019-03-24T22:40:49.874Z,64.40
2019-03-24T22:43:22.050Z,64.60
2019-03-24T22:45:51.891Z,64.70
2019-03-24T22:48:21.810Z,64.80
2019-03-24T22:50:51.597Z,65.10
2019-03-24T22:53:21.406Z,65.20
2019-03-24T22:55:51.245Z,65.20
2019-03-24T22:58:21.038Z,65.40
2019-03-24T23:00:53.151Z,65.30
2019-03-24T23:03:25.031Z,65.20
2019-03-24T23:05:55.028Z,65.00
2019-03-24T23:08:24.830Z,64.80
2019-03-24T23:10:54.691Z,64.70
2019-03-24T23:13:24.592Z,64.40
2019-03-24T23:15:54.420Z,64.40
2019-03-24T23:18:24.258Z,64.30
2019-03-24T23:20:54.060Z,64.30
2019-03-24T23:23:23.968Z,64.20
2019-03-24T23:25:53.800Z,64.30
2019-03-24T23:28:23.591Z,64.20
2019-03-24T23:30:53.572Z,64.20
2019-03-24T23:33:23.408Z,64.40
2019-03-24T23:35:53.228Z,64.30
2019-03-24T23:38:23.083Z,64.30
2019-03-24T23:40:53.320Z,64.30
2019-03-24T23:43:23.209Z,64.40
2019-03-24T23:45:53.040Z,64.50
2019-03-24T23:48:22.911Z,64.50
2019-03-24T23:50:52.695Z,64.40
2019-03-24T23:53:22.615Z,64.30
2019-03-24T23:55:52.583Z,64.40
2019-03-24T23:58:22.391Z,64.30
